createdAt,value
2019-01-26T00:00:01.046Z,6.60
2019-01-26T00:02:31.774Z,6.70
2019-01-26T00:05:01.983Z,6.60
2019-01-26T00:07:32.233Z,6.40
2019-01-26T00:10:02.555Z,6.70
2019-01-26T00:12:33.090Z,6.40
2019-01-26T00:15:03.682Z,6.60
2019-01-26T00:17:33.959Z,6.60
2019-01-26T00:20:04.923Z,6.50
2019-01-26T00:22:35.619Z,6.70
2019-01-26T00:25:07.045Z,6.70
2019-01-26T00:27:38.142Z,6.30
2019-01-26T00:30:09.350Z,6.50
2019-01-26T00:32:39.682Z,6.40
2019-01-26T00:35:10.121Z,6.70
2019-01-26T00:37:40.368Z,6.40
2019-01-26T00:40:10.820Z,6.60
2019-01-26T00:42:40.945Z,6.80
2019-01-26T00:45:11.329Z,6.50
2019-01-26T00:47:41.935Z,6.40
2019-01-26T00:50:12.405Z,6.60
2019-01-26T00:52:43.245Z,6.60
2019-01-26T00:55:14.117Z,6.70
2019-01-26T00:57:44.788Z,6.90
2019-01-26T01:00:16.045Z,6.70
2019-01-26T01:02:46.341Z,6.60
2019-01-26T01:05:18.017Z,6.60
2019-01-26T01:07:48.916Z,6.80
2019-01-26T01:10:20.645Z,6.50
2019-01-26T01:12:50.926Z,6.60
2019-01-26T01:15:21.163Z,6.30
2019-01-26T01:17:51.840Z,6.50
2019-01-26T01:20:22.864Z,6.50
2019-01-26T01:22:53.136Z,6.40
2019-01-26T01:25:23.737Z,6.20
2019-01-26T01:27:54.080Z,6.20
2019-01-26T01:30:24.774Z,6.10
2019-01-26T01:32:55.055Z,6.10
2019-01-26T01:35:25.355Z,6.20
2019-01-26T01:37:55.742Z,6.10
2019-01-26T01:40:25.956Z,6.30
2019-01-26T01:42:56.170Z,6.40
2019-01-26T01:45:26.494Z,6.40
2019-01-26T01:47:56.960Z,6.30
2019-01-26T01:50:27.152Z,6.30
2019-01-26T01:52:57.405Z,6.30
2019-01-26T01:55:27.647Z,6.20
2019-01-26T01:57:57.814Z,6.10
2019-01-26T02:00:28.332Z,6.10
2019-01-26T02:02:58.608Z,6.30
2019-01-26T02:05:28.792Z,6.10
2019-01-26T02:07:59.312Z,6.00
2019-01-26T02:10:29.688Z,6.20
2019-01-26T02:13:00.430Z,6.10
2019-01-26T02:15:31.116Z,6.40
2019-01-26T02:18:01.910Z,6.10
2019-01-26T02:20:32.160Z,6.00
2019-01-26T02:23:02.400Z,6.00
2019-01-26T02:25:32.742Z,6.10
2019-01-26T02:28:02.980Z,6.20
2019-01-26T02:30:33.832Z,5.80
2019-01-26T02:33:05.802Z,5.80
2019-01-26T02:35:36.411Z,5.90
2019-01-26T02:38:06.583Z,5.80
2019-01-26T02:40:36.802Z,5.60
2019-01-26T02:43:07.172Z,5.60
2019-01-26T02:45:37.681Z,5.60
2019-01-26T02:48:07.867Z,5.60
2019-01-26T02:50:38.762Z,5.80
2019-01-26T02:53:08.984Z,5.70
2019-01-26T02:55:39.756Z,5.70
2019-01-26T02:58:10.094Z,5.80
2019-01-26T03:00:40.622Z,6.00
2019-01-26T03:03:10.784Z,5.90
2019-01-26T03:05:41.370Z,5.90
2019-01-26T03:08:11.565Z,5.60
2019-01-26T03:10:41.799Z,5.90
2019-01-26T03:13:11.965Z,5.50
2019-01-26T03:15:42.104Z,5.60
2019-01-26T03:18:12.393Z,5.60
2019-01-26T03:20:42.555Z,5.80
2019-01-26T03:23:13.132Z,6.00
2019-01-26T03:25:43.659Z,6.10
2019-01-26T03:28:14.126Z,5.80
2019-01-26T03:30:44.701Z,5.70
2019-01-26T03:33:14.917Z,5.50
2019-01-26T03:35:45.116Z,5.60
2019-01-26T03:38:15.753Z,5.60
2019-01-26T03:40:46.278Z,5.20
2019-01-26T03:43:16.687Z,5.30
2019-01-26T03:45:46.917Z,5.20
2019-01-26T03:48:17.223Z,5.20
2019-01-26T03:50:47.496Z,5.40
2019-01-26T03:53:17.719Z,5.20
2019-01-26T03:55:47.943Z,5.30
2019-01-26T03:58:18.567Z,5.20
2019-01-26T04:00:49.086Z,5.30
2019-01-26T04:03:19.294Z,5.50
2019-01-26T04:05:49.527Z,5.30
2019-01-26T04:08:19.731Z,5.20
2019-01-26T04:10:49.946Z,5.50
2019-01-26T04:13:20.480Z,5.70
2019-01-26T04:15:50.717Z,5.50
2019-01-26T04:18:21.332Z,5.60
2019-01-26T04:20:51.615Z,5.30
2019-01-26T04:23:22.193Z,5.40
2019-01-26T04:25:52.414Z,5.20
2019-01-26T04:28:22.957Z,5.50
2019-01-26T04:30:53.646Z,5.70
2019-01-26T04:33:23.898Z,5.60
2019-01-26T04:35:54.719Z,5.50
2019-01-26T04:38:25.301Z,5.50
2019-01-26T04:40:56.331Z,5.60
2019-01-26T04:43:26.512Z,5.60
2019-01-26T04:45:56.778Z,5.80
2019-01-26T04:48:27.047Z,5.50
2019-01-26T04:50:57.254Z,5.80
2019-01-26T04:53:27.446Z,5.80
2019-01-26T04:55:57.671Z,5.60
2019-01-26T04:58:28.272Z,5.70
2019-01-26T05:00:58.494Z,5.60
2019-01-26T05:03:29.008Z,5.20
2019-01-26T05:05:59.232Z,5.50
2019-01-26T05:08:29.686Z,5.40
2019-01-26T05:10:59.803Z,5.40
2019-01-26T05:13:31.000Z,5.30
2019-01-26T05:16:01.595Z,5.40
2019-01-26T05:18:32.084Z,5.60
2019-01-26T05:21:03.104Z,5.40
2019-01-26T05:23:33.683Z,5.40
2019-01-26T05:26:04.114Z,5.50
2019-01-26T05:28:34.258Z,5.70
2019-01-26T05:31:05.600Z,5.80
2019-01-26T05:33:36.047Z,5.70
2019-01-26T05:36:07.221Z,5.60
2019-01-26T05:38:37.636Z,5.80
2019-01-26T05:41:08.085Z,6.00
2019-01-26T05:43:38.680Z,5.80
2019-01-26T05:46:09.311Z,6.10
2019-01-26T05:48:39.564Z,5.80
2019-01-26T05:51:10.224Z,6.00
2019-01-26T05:53:40.380Z,6.10
2019-01-26T05:56:10.673Z,6.40
2019-01-26T05:58:40.926Z,6.10
2019-01-26T06:01:11.110Z,6.50
2019-01-26T06:03:41.724Z,6.50
2019-01-26T06:06:11.880Z,6.50
2019-01-26T06:08:42.468Z,6.10
2019-01-26T06:11:12.640Z,6.60
2019-01-26T06:13:43.222Z,6.50
2019-01-26T06:16:13.951Z,6.70
2019-01-26T06:18:44.074Z,6.80
2019-01-26T06:21:14.905Z,6.70
2019-01-26T06:23:45.191Z,6.40
2019-01-26T06:26:15.395Z,6.30
2019-01-26T06:28:45.638Z,6.60
2019-01-26T06:31:15.872Z,6.50
2019-01-26T06:33:46.089Z,6.10
2019-01-26T06:36:16.750Z,6.30
2019-01-26T06:38:46.927Z,6.10
2019-01-26T06:41:17.193Z,5.80
2019-01-26T06:43:47.899Z,6.00
2019-01-26T06:46:18.157Z,6.10
2019-01-26T06:48:50.001Z,6.00
2019-01-26T06:51:20.513Z,5.60
2019-01-26T06:53:50.743Z,5.40
2019-01-26T06:56:21.372Z,5.60
2019-01-26T06:58:51.969Z,5.30
2019-01-26T07:01:22.468Z,5.60
2019-01-26T07:03:53.235Z,5.50
2019-01-26T07:06:34.848Z,5.50
2019-01-26T07:09:08.593Z,5.70
2019-01-26T07:11:39.120Z,5.70
2019-01-26T07:14:09.441Z,6.00
2019-01-26T07:16:40.020Z,6.20
2019-01-26T07:19:10.277Z,5.60
2019-01-26T07:21:40.647Z,5.80
2019-01-26T07:24:11.323Z,5.90
2019-01-26T07:26:41.564Z,5.60
2019-01-26T07:29:11.775Z,5.50
2019-01-26T07:31:42.050Z,5.70
2019-01-26T07:34:12.810Z,5.80
2019-01-26T07:36:43.011Z,6.10
2019-01-26T07:39:13.743Z,5.80
2019-01-26T07:41:43.982Z,6.00
2019-01-26T07:44:14.205Z,6.20
2019-01-26T07:46:44.536Z,6.10
2019-01-26T07:49:14.812Z,6.30
2019-01-26T07:51:46.022Z,6.40
2019-01-26T07:54:16.924Z,6.00
2019-01-26T07:56:47.204Z,6.30
2019-01-26T07:59:17.519Z,6.30
2019-01-26T08:01:48.079Z,6.20
2019-01-26T08:04:18.647Z,6.20
2019-01-26T08:06:49.231Z,6.40
2019-01-26T08:09:19.482Z,6.50
2019-01-26T08:11:49.806Z,6.40
2019-01-26T08:14:19.964Z,6.40
2019-01-26T08:16:53.158Z,6.40
2019-01-26T08:19:23.352Z,6.40
2019-01-26T08:21:53.544Z,6.60
2019-01-26T08:24:24.183Z,6.50
2019-01-26T08:26:55.109Z,6.40
2019-01-26T08:29:25.371Z,6.80
2019-01-26T08:31:55.902Z,6.40
2019-01-26T08:34:26.164Z,6.70
2019-01-26T08:36:56.404Z,6.90
2019-01-26T08:39:27.075Z,6.80
2019-01-26T08:41:57.727Z,6.80
2019-01-26T08:44:27.947Z,6.80
2019-01-26T08:46:58.177Z,6.80
2019-01-26T08:49:28.505Z,6.40
2019-01-26T08:51:58.806Z,6.80
2019-01-26T08:54:29.035Z,7.20
2019-01-26T08:56:59.325Z,6.80
2019-01-26T08:59:29.563Z,6.80
2019-01-26T09:02:25.571Z,6.80
2019-01-26T09:04:57.193Z,6.70
2019-01-26T09:07:27.694Z,6.70
2019-01-26T09:09:58.004Z,6.80
2019-01-26T09:12:28.645Z,7.00
2019-01-26T09:14:59.051Z,7.20
2019-01-26T09:17:29.581Z,6.90
2019-01-26T09:19:59.821Z,7.00
2019-01-26T09:22:30.095Z,7.10
2019-01-26T09:25:00.502Z,7.20
2019-01-26T09:27:31.055Z,7.30
2019-01-26T09:30:01.626Z,7.40
2019-01-26T09:32:32.154Z,7.20
2019-01-26T09:35:02.320Z,7.30
2019-01-26T09:37:32.674Z,7.40
2019-01-26T09:40:02.961Z,7.30
2019-01-26T09:42:33.142Z,7.40
2019-01-26T09:45:03.377Z,7.30
2019-01-26T09:47:33.910Z,7.60
2019-01-26T09:50:04.488Z,7.70
2019-01-26T09:52:34.758Z,7.40
2019-01-26T09:55:06.540Z,7.60
2019-01-26T09:57:37.201Z,7.40
2019-01-26T10:00:10.385Z,7.50
2019-01-26T10:02:40.640Z,7.40
2019-01-26T10:05:11.426Z,7.30
2019-01-26T10:07:41.653Z,7.40
2019-01-26T10:10:12.546Z,7.60
2019-01-26T10:12:42.857Z,7.50
2019-01-26T10:15:15.692Z,7.60
2019-01-26T10:17:46.281Z,7.60
2019-01-26T10:20:19.400Z,7.90
2019-01-26T10:22:49.579Z,7.70
2019-01-26T10:25:19.865Z,8.10
2019-01-26T10:27:50.318Z,8.20
2019-01-26T10:30:27.295Z,8.20
2019-01-26T10:32:57.568Z,7.90
2019-01-26T10:35:41.772Z,7.70
2019-01-26T10:38:12.405Z,7.90
2019-01-26T10:41:01.533Z,7.80
2019-01-26T10:43:33.200Z,8.20
2019-01-26T10:46:03.689Z,8.20
2019-01-26T10:48:34.456Z,8.20
2019-01-26T10:51:05.765Z,8.50
2019-01-26T10:53:36.358Z,8.20
2019-01-26T10:56:06.954Z,8.10
2019-01-26T10:58:37.203Z,8.40
2019-01-26T11:01:07.960Z,8.50
2019-01-26T11:03:38.602Z,8.00
2019-01-26T11:06:08.917Z,8.30
2019-01-26T11:08:39.436Z,8.40
2019-01-26T11:11:09.714Z,8.40
2019-01-26T11:13:40.289Z,8.50
2019-01-26T11:16:10.525Z,8.80
2019-01-26T11:18:40.674Z,8.70
2019-01-26T11:21:11.016Z,8.50
2019-01-26T11:23:41.197Z,8.40
2019-01-26T11:26:11.818Z,8.40
2019-01-26T11:28:42.054Z,8.10
2019-01-26T11:31:13.368Z,8.10
2019-01-26T11:33:45.020Z,8.00
2019-01-26T11:36:15.926Z,8.20
2019-01-26T11:38:46.489Z,8.20
2019-01-26T11:41:16.725Z,7.90
2019-01-26T11:43:47.003Z,7.90
2019-01-26T11:46:21.075Z,8.00
2019-01-26T11:48:52.846Z,8.20
2019-01-26T11:51:48.331Z,8.30
2019-01-26T11:54:19.540Z,8.30
2019-01-26T11:57:03.891Z,8.90
2019-01-26T11:59:34.418Z,8.80
2019-01-26T12:02:30.144Z,8.90
2019-01-26T12:05:18.187Z,8.90
2019-01-26T12:07:49.135Z,8.80
2019-01-26T12:10:19.757Z,8.70
2019-01-26T12:12:49.975Z,8.40
2019-01-26T12:15:20.215Z,8.40
2019-01-26T12:17:50.740Z,8.40
2019-01-26T12:20:21.062Z,8.70
2019-01-26T12:22:51.284Z,8.40
2019-01-26T12:25:21.578Z,8.40
2019-01-26T12:27:51.823Z,8.40
2019-01-26T12:30:22.043Z,8.10
2019-01-26T12:32:53.109Z,8.50
2019-01-26T12:35:23.353Z,8.40
2019-01-26T12:37:53.968Z,8.10
2019-01-26T12:40:24.221Z,8.20
2019-01-26T12:42:54.456Z,8.40
2019-01-26T12:45:24.800Z,8.40
2019-01-26T12:47:55.029Z,8.60
2019-01-26T12:50:25.640Z,9.00
2019-01-26T12:52:55.975Z,9.20
2019-01-26T12:55:26.166Z,9.40
2019-01-26T12:57:56.392Z,9.50
2019-01-26T13:00:26.831Z,9.20
2019-01-26T13:02:57.060Z,9.40
2019-01-26T13:05:27.602Z,9.20
2019-01-26T13:07:58.089Z,8.90
2019-01-26T13:10:31.678Z,9.00
2019-01-26T13:13:02.454Z,9.00
2019-01-26T13:15:32.692Z,9.10
2019-01-26T13:18:03.210Z,9.20
2019-01-26T13:20:33.505Z,9.00
2019-01-26T13:23:03.782Z,9.10
2019-01-26T13:25:34.057Z,9.20
2019-01-26T13:28:04.339Z,9.10
2019-01-26T13:30:35.015Z,9.00
2019-01-26T13:33:05.763Z,9.00
2019-01-26T13:35:36.051Z,9.20
2019-01-26T13:38:06.596Z,9.20
2019-01-26T13:40:36.853Z,9.00
2019-01-26T13:43:07.029Z,9.40
2019-01-26T13:45:37.534Z,9.20
2019-01-26T13:48:08.085Z,9.50
2019-01-26T13:50:38.370Z,9.20
2019-01-26T13:53:09.358Z,9.40
2019-01-26T13:55:39.644Z,9.50
2019-01-26T13:58:09.841Z,9.50
2019-01-26T14:00:40.068Z,9.60
2019-01-26T14:03:10.674Z,9.50
2019-01-26T14:05:41.277Z,9.30
2019-01-26T14:08:11.530Z,9.50
2019-01-26T14:10:42.054Z,9.50
2019-01-26T14:13:12.292Z,9.30
2019-01-26T14:15:42.495Z,9.50
2019-01-26T14:18:13.143Z,9.50
2019-01-26T14:20:43.395Z,9.80
2019-01-26T14:23:13.784Z,9.70
2019-01-26T14:25:44.102Z,9.50
2019-01-26T14:28:14.628Z,9.50
2019-01-26T14:30:48.571Z,9.80
2019-01-26T14:33:18.701Z,9.40
2019-01-26T14:35:49.313Z,9.20
2019-01-26T14:38:19.550Z,9.40
2019-01-26T14:40:50.252Z,9.70
2019-01-26T14:43:21.044Z,9.70
2019-01-26T14:45:52.593Z,9.50
2019-01-26T14:48:23.171Z,9.20
2019-01-26T14:50:53.756Z,9.20
2019-01-26T14:53:23.953Z,9.10
2019-01-26T14:55:54.197Z,9.20
2019-01-26T14:58:24.766Z,9.30
2019-01-26T15:00:55.457Z,9.40
2019-01-26T15:03:29.162Z,8.90
2019-01-26T15:06:03.583Z,9.20
2019-01-26T15:08:34.454Z,8.80
2019-01-26T15:11:05.642Z,8.90
2019-01-26T15:13:35.854Z,8.80
2019-01-26T15:16:06.624Z,8.80
2019-01-26T15:18:37.087Z,8.80
2019-01-26T15:21:07.637Z,8.80
2019-01-26T15:23:38.164Z,9.10
2019-01-26T15:26:08.414Z,9.00
2019-01-26T15:28:43.063Z,9.10
2019-01-26T15:31:11.233Z,8.90
2019-01-26T15:33:41.529Z,8.80
2019-01-26T15:36:11.763Z,8.80
2019-01-26T15:38:42.064Z,8.80
2019-01-26T15:41:12.594Z,8.90
2019-01-26T15:43:43.151Z,9.00
2019-01-26T15:46:13.843Z,8.90
2019-01-26T15:48:44.155Z,9.10
2019-01-26T15:51:14.378Z,9.40
2019-01-26T15:53:45.011Z,8.90
2019-01-26T15:56:15.249Z,8.90
2019-01-26T15:58:45.444Z,9.10
2019-01-26T16:01:15.805Z,9.10
2019-01-26T16:03:46.062Z,9.00
2019-01-26T16:06:16.556Z,8.80
2019-01-26T16:08:47.337Z,8.90
2019-01-26T16:11:17.794Z,9.00
2019-01-26T16:13:48.124Z,8.90
2019-01-26T16:16:18.735Z,8.80
2019-01-26T16:18:49.317Z,8.70
2019-01-26T16:21:19.935Z,8.70
2019-01-26T16:23:50.443Z,8.80
2019-01-26T16:26:20.929Z,8.60
2019-01-26T16:28:51.852Z,8.80
2019-01-26T16:31:22.156Z,8.70
2019-01-26T16:33:52.407Z,8.70
2019-01-26T16:36:22.554Z,8.50
2019-01-26T16:38:53.453Z,8.50
2019-01-26T16:41:23.911Z,8.60
2019-01-26T16:43:54.485Z,8.40
2019-01-26T16:46:24.707Z,8.50
2019-01-26T16:48:55.622Z,8.30
2019-01-26T16:51:26.233Z,8.30
2019-01-26T16:53:57.001Z,8.60
2019-01-26T16:56:27.736Z,8.40
2019-01-26T16:58:57.994Z,8.40
2019-01-26T17:01:28.238Z,8.60
2019-01-26T17:03:58.519Z,8.40
2019-01-26T17:06:28.761Z,8.60
2019-01-26T17:08:59.271Z,8.30
2019-01-26T17:11:29.756Z,8.60
2019-01-26T17:13:59.961Z,8.60
2019-01-26T17:16:30.256Z,8.20
2019-01-26T17:19:00.517Z,8.40
2019-01-26T17:21:31.273Z,8.40
2019-01-26T17:24:01.616Z,8.30
2019-01-26T17:26:31.985Z,8.10
2019-01-26T17:29:03.354Z,8.30
2019-01-26T17:31:33.905Z,8.40
2019-01-26T17:34:04.177Z,8.60
2019-01-26T17:36:34.806Z,8.40
2019-01-26T17:39:10.913Z,8.70
2019-01-26T17:41:41.094Z,8.40
2019-01-26T17:44:11.662Z,8.50
2019-01-26T17:46:41.827Z,8.30
2019-01-26T17:49:12.000Z,8.30
2019-01-26T17:51:42.585Z,8.40
2019-01-26T17:54:13.163Z,8.40
2019-01-26T17:56:43.296Z,8.50
2019-01-26T17:59:13.436Z,8.10
2019-01-26T18:01:43.579Z,8.50
2019-01-26T18:04:14.130Z,8.00
2019-01-26T18:06:44.682Z,8.50
2019-01-26T18:09:15.357Z,8.30
2019-01-26T18:11:45.891Z,8.30
2019-01-26T18:14:16.431Z,8.30
2019-01-26T18:16:47.334Z,8.10
2019-01-26T18:19:17.569Z,8.10
2019-01-26T18:21:47.801Z,8.20
2019-01-26T18:24:18.431Z,8.50
2019-01-26T18:26:48.683Z,8.20
2019-01-26T18:29:19.310Z,8.00
2019-01-26T18:31:49.511Z,8.40
2019-01-26T18:34:19.710Z,8.00
2019-01-26T18:36:50.210Z,8.10
2019-01-26T18:39:20.466Z,8.10
2019-01-26T18:41:51.088Z,8.40
2019-01-26T18:44:21.224Z,8.20
2019-01-26T18:46:52.145Z,8.10
2019-01-26T18:49:22.416Z,8.20
2019-01-26T18:51:52.750Z,8.20
2019-01-26T18:54:22.972Z,8.10
2019-01-26T18:56:53.225Z,8.20
2019-01-26T18:59:24.334Z,8.00
2019-01-26T19:01:54.609Z,8.00
2019-01-26T19:04:33.706Z,8.00
2019-01-26T19:07:04.838Z,8.00
2019-01-26T19:09:35.099Z,8.00
2019-01-26T19:12:05.690Z,8.00
2019-01-26T19:14:36.096Z,8.00
2019-01-26T19:17:06.686Z,7.80
2019-01-26T19:19:37.200Z,8.20
2019-01-26T19:22:07.609Z,8.20
2019-01-26T19:24:38.166Z,8.00
2019-01-26T19:27:08.911Z,7.70
2019-01-26T19:29:39.462Z,8.20
2019-01-26T19:32:09.807Z,7.80
2019-01-26T19:34:40.475Z,7.90
2019-01-26T19:37:11.199Z,8.20
2019-01-26T19:39:41.450Z,8.10
2019-01-26T19:42:11.657Z,7.90
2019-01-26T19:44:41.999Z,7.90
2019-01-26T19:47:12.636Z,7.80
2019-01-26T19:49:42.992Z,7.70
2019-01-26T19:52:13.239Z,7.70
2019-01-26T19:54:43.488Z,8.10
2019-01-26T19:57:14.092Z,8.00
2019-01-26T19:59:44.327Z,7.70
2019-01-26T20:02:15.701Z,8.00
2019-01-26T20:04:46.218Z,8.00
2019-01-26T20:07:17.157Z,7.70
2019-01-26T20:09:47.406Z,8.10
2019-01-26T20:12:18.002Z,7.70
2019-01-26T20:14:48.251Z,7.80
2019-01-26T20:17:18.434Z,7.80
2019-01-26T20:19:48.780Z,8.10
2019-01-26T20:22:18.944Z,7.60
2019-01-26T20:24:49.135Z,7.80
2019-01-26T20:27:19.702Z,7.90
2019-01-26T20:29:50.435Z,7.80
2019-01-26T20:32:20.665Z,7.90
2019-01-26T20:34:51.405Z,8.10
2019-01-26T20:39:49.600Z,7.90
2019-01-26T20:42:20.362Z,7.90
2019-01-26T20:44:50.633Z,7.90
2019-01-26T20:47:20.849Z,8.10
2019-01-26T20:49:51.065Z,7.80
2019-01-26T20:52:21.656Z,7.90
2019-01-26T20:54:51.951Z,8.00
2019-01-26T20:57:22.257Z,7.80
2019-01-26T20:59:52.566Z,7.90
2019-01-26T21:02:22.840Z,8.10
2019-01-26T21:04:54.900Z,8.00
2019-01-26T21:07:25.156Z,7.90
2019-01-26T21:09:55.426Z,8.00
2019-01-26T21:12:26.278Z,7.80
2019-01-26T21:14:56.921Z,7.70
2019-01-26T21:17:27.987Z,7.80
2019-01-26T21:19:58.537Z,7.70
2019-01-26T21:22:29.146Z,7.80
2019-01-26T21:24:59.400Z,8.00
2019-01-26T21:27:29.695Z,7.80
2019-01-26T21:30:00.180Z,7.80
2019-01-26T21:32:30.875Z,7.80
2019-01-26T21:35:01.528Z,7.60
2019-01-26T21:37:31.865Z,7.80
2019-01-26T21:40:02.566Z,7.90
2019-01-26T21:42:45.680Z,7.70
2019-01-26T21:45:16.169Z,7.80
2019-01-26T21:47:47.629Z,7.40
2019-01-26T21:50:23.035Z,7.50
2019-01-26T21:52:53.639Z,7.80
2019-01-26T21:55:23.973Z,7.70
2019-01-26T21:57:54.770Z,7.70
2019-01-26T22:00:30.369Z,7.90
2019-01-26T22:03:02.219Z,7.70
2019-01-26T22:05:32.635Z,7.90
2019-01-26T22:08:03.083Z,7.80
2019-01-26T22:10:33.992Z,7.80
2019-01-26T22:13:04.335Z,7.80
2019-01-26T22:15:35.007Z,7.90
2019-01-26T22:18:05.929Z,7.80
2019-01-26T22:20:36.208Z,7.90
2019-01-26T22:23:06.613Z,7.90
2019-01-26T22:25:37.237Z,7.80
2019-01-26T22:28:07.874Z,7.90
2019-01-26T22:30:38.401Z,7.90
2019-01-26T22:33:08.773Z,7.80
2019-01-26T22:35:38.963Z,7.80
2019-01-26T22:38:09.535Z,7.90
2019-01-26T22:40:40.001Z,7.80
2019-01-26T22:43:10.237Z,7.90
2019-01-26T22:45:40.409Z,7.80
2019-01-26T22:48:10.910Z,7.80
2019-01-26T22:50:41.141Z,7.90
2019-01-26T22:53:11.672Z,7.80
2019-01-26T22:55:41.949Z,7.90
2019-01-26T22:58:12.828Z,7.80
2019-01-26T23:01:00.673Z,7.90
2019-01-26T23:03:55.593Z,7.80
2019-01-26T23:06:34.063Z,8.20
2019-01-26T23:09:15.772Z,8.10
2019-01-26T23:12:22.251Z,7.90
2019-01-26T23:15:41.252Z,7.80
2019-01-26T23:18:49.884Z,8.00
2019-01-26T23:22:19.274Z,7.70
2019-01-26T23:25:08.670Z,8.10
2019-01-26T23:28:16.732Z,7.90
2019-01-26T23:31:10.227Z,7.80
2019-01-26T23:33:41.235Z,8.00
2019-01-26T23:36:11.567Z,7.90
2019-01-26T23:38:41.790Z,7.90
2019-01-26T23:41:12.366Z,7.80
2019-01-26T23:43:42.594Z,7.70
2019-01-26T23:46:13.053Z,7.70
2019-01-26T23:48:43.307Z,7.70
2019-01-26T23:51:13.811Z,7.80
2019-01-26T23:53:44.369Z,7.90
2019-01-26T23:56:14.599Z,7.80
2019-01-26T23:58:44.781Z,8.00
